createdAt,value
2023-01-03T00:05:03.873Z,0
2023-01-03T00:11:26.794Z,0
2023-01-03T00:17:46.783Z,0
2023-01-03T00:24:09.835Z,0
2023-01-03T00:30:29.869Z,0
2023-01-03T00:36:52.869Z,0
2023-01-03T00:43:12.780Z,0
2023-01-03T00:49:35.861Z,0
2023-01-03T00:55:55.780Z,0
2023-01-03T01:02:18.950Z,0
2023-01-03T01:08:38.921Z,0
2023-01-03T01:15:01.825Z,0
2023-01-03T01:21:21.890Z,0
2023-01-03T01:27:44.793Z,0
2023-01-03T01:34:04.923Z,0
2023-01-03T01:40:27.797Z,0
2023-01-03T01:46:47.909Z,0
2023-01-03T01:53:10.942Z,0
2023-01-03T01:59:30.772Z,0
2023-01-03T02:05:53.849Z,0
2023-01-03T02:12:13.869Z,0
2023-01-03T02:18:36.806Z,0
2023-01-03T02:24:56.771Z,0
2023-01-03T02:31:19.880Z,0
2023-01-03T02:37:39.761Z,0
2023-01-03T02:44:02.757Z,0
2023-01-03T02:50:22.785Z,0
2023-01-03T02:56:45.781Z,0
2023-01-03T03:03:05.889Z,0
2023-01-03T03:09:28.822Z,0
2023-01-03T03:15:48.797Z,0
2023-01-03T03:22:11.833Z,0
2023-01-03T03:28:31.858Z,0
2023-01-03T03:34:54.872Z,0
2023-01-03T03:41:14.852Z,0
2023-01-03T03:47:37.999Z,0
2023-01-03T03:53:57.807Z,0
2023-01-03T04:00:20.798Z,0
2023-01-03T04:06:40.826Z,0
2023-01-03T04:30:04.861Z,0
2023-01-03T04:36:27.747Z,0
2023-01-03T04:42:47.902Z,0
2023-01-03T04:49:10.848Z,0
2023-01-03T04:55:30.801Z,0
2023-01-03T05:01:53.859Z,0
2023-01-03T05:08:13.858Z,0
2023-01-03T05:14:36.814Z,0
2023-01-03T05:20:56.785Z,0
2023-01-03T05:27:19.838Z,0
2023-01-03T05:33:39.768Z,0
2023-01-03T05:40:02.752Z,0
2023-01-03T05:46:22.807Z,0
2023-01-03T05:52:45.759Z,0
2023-01-03T05:59:06.754Z,0
2023-01-03T06:05:31.261Z,0
2023-01-03T06:11:51.034Z,0
2023-01-03T06:18:15.875Z,0
2023-01-03T06:24:35.821Z,0
2023-01-03T06:30:58.911Z,0
2023-01-03T06:37:19.962Z,0
2023-01-03T06:43:42.874Z,0
2023-01-03T06:50:02.897Z,0
2023-01-03T06:56:25.816Z,0
2023-01-03T07:02:46.063Z,0
2023-01-03T07:09:08.834Z,0
2023-01-03T07:15:28.803Z,0
2023-01-03T07:21:51.776Z,0
2023-01-03T07:28:11.755Z,0
2023-01-03T07:34:34.914Z,0
2023-01-03T07:40:54.849Z,0
2023-01-03T07:47:17.799Z,0
2023-01-03T07:53:37.758Z,0
2023-01-03T08:00:00.871Z,5.62
2023-01-03T08:06:20.755Z,5.62
2023-01-03T08:12:43.764Z,5.62
2023-01-03T08:19:03.909Z,5.62
2023-01-03T08:25:26.789Z,5.62
2023-01-03T08:31:46.791Z,5.62
2023-01-03T08:38:09.773Z,5.62
2023-01-03T08:44:29.744Z,11.25
2023-01-03T08:50:52.824Z,16.88
2023-01-03T08:57:12.807Z,16.88
2023-01-03T09:03:36.005Z,16.88
2023-01-03T09:09:55.771Z,16.88
2023-01-03T09:16:18.846Z,16.88
2023-01-03T09:22:38.780Z,33.75
2023-01-03T09:38:13.690Z,39.38
2023-01-03T09:44:33.733Z,45
2023-01-03T09:51:18.190Z,45
2023-01-03T09:57:16.876Z,50.62
2023-01-03T10:03:43.310Z,50.62
2023-01-03T10:09:59.826Z,45
2023-01-03T10:16:22.778Z,56.25
2023-01-03T10:22:42.755Z,45
2023-01-03T10:29:05.857Z,56.25
2023-01-03T10:35:25.801Z,56.25
2023-01-03T10:41:48.940Z,56.25
2023-01-03T10:48:08.800Z,61.88
2023-01-03T10:54:31.812Z,61.88
2023-01-03T11:00:51.903Z,61.88
2023-01-03T11:07:14.779Z,67.5
2023-01-03T11:13:34.860Z,67.5
2023-01-03T11:19:57.838Z,67.5
2023-01-03T11:26:17.892Z,73.12
2023-01-03T11:32:40.815Z,84.38
2023-01-03T11:39:00.853Z,39.38
2023-01-03T11:45:23.905Z,84.38
2023-01-03T11:51:43.873Z,33.75
2023-01-03T11:58:06.845Z,28.12
2023-01-03T12:04:26.914Z,33.75
2023-01-03T12:10:49.796Z,33.75
2023-01-03T12:17:09.816Z,90
2023-01-03T12:23:32.749Z,84.38
2023-01-03T12:29:52.840Z,90
2023-01-03T12:36:15.770Z,101.25
2023-01-03T12:42:35.779Z,90
2023-01-03T12:48:58.938Z,101.25
2023-01-03T12:55:18.782Z,39.38
2023-01-03T13:01:42.105Z,45
2023-01-03T13:08:01.856Z,84.38
2023-01-03T13:14:24.819Z,39.38
2023-01-03T13:20:49.561Z,84.38
2023-01-03T13:27:07.884Z,78.75
2023-01-03T13:33:27.819Z,78.75
2023-01-03T13:39:50.800Z,22.5
2023-01-03T13:46:10.851Z,22.5
2023-01-03T13:52:33.802Z,16.88
2023-01-03T13:58:53.749Z,22.5
2023-01-03T14:05:16.825Z,39.38
2023-01-03T14:11:36.857Z,22.5
2023-01-03T14:17:59.940Z,22.5
2023-01-03T14:24:19.834Z,22.5
2023-01-03T14:30:42.763Z,33.75
2023-01-03T14:37:02.896Z,11.25
2023-01-03T14:52:54.749Z,11.25
2023-01-03T14:59:14.743Z,11.25
2023-01-03T15:05:37.742Z,11.25
2023-01-03T15:11:57.796Z,11.25
2023-01-03T15:18:21.030Z,5.62
2023-01-03T15:24:43.132Z,0
2023-01-03T15:31:03.922Z,0
2023-01-03T15:37:23.819Z,0
2023-01-03T15:43:46.829Z,0
2023-01-03T15:50:06.957Z,0
2023-01-03T15:56:29.985Z,0
2023-01-03T16:02:50.191Z,0
2023-01-03T16:09:13.117Z,0
2023-01-03T16:15:32.751Z,0
2023-01-03T16:22:32.385Z,0
2023-01-03T16:28:15.916Z,0
2023-01-03T16:34:38.740Z,0
2023-01-03T16:40:58.782Z,0
2023-01-03T16:47:21.785Z,0
2023-01-03T16:53:41.779Z,0
2023-01-03T17:00:04.897Z,0
2023-01-03T17:06:24.762Z,0
2023-01-03T17:12:47.768Z,0
2023-01-03T17:19:07.841Z,0
2023-01-03T17:25:30.824Z,0
2023-01-03T17:31:50.800Z,0
2023-01-03T17:38:25.497Z,0
2023-01-03T17:44:33.817Z,0
2023-01-03T17:50:56.764Z,0
2023-01-03T17:57:16.740Z,0
2023-01-03T18:03:40.022Z,0
2023-01-03T18:09:59.814Z,0
2023-01-03T18:16:22.839Z,0
2023-01-03T18:22:42.820Z,0
2023-01-03T18:29:05.877Z,0
2023-01-03T18:35:29.862Z,0
2023-01-03T18:41:48.782Z,0
2023-01-03T18:48:08.817Z,0
2023-01-03T18:54:31.778Z,0
2023-01-03T19:00:51.881Z,0
2023-01-03T19:07:14.820Z,0
2023-01-03T19:13:34.765Z,0
2023-01-03T19:19:58.124Z,0
2023-01-03T19:26:17.833Z,0
2023-01-03T19:32:40.732Z,0
2023-01-03T19:39:00.779Z,0
2023-01-03T19:45:23.767Z,0
2023-01-03T20:09:05.723Z,0
2023-01-03T20:15:25.777Z,0
2023-01-03T20:21:48.843Z,0
2023-01-03T20:28:08.814Z,0
2023-01-03T20:34:31.759Z,0
2023-01-03T20:40:51.767Z,0
2023-01-03T20:47:14.842Z,0
2023-01-03T20:53:37.416Z,0
2023-01-03T20:59:57.776Z,0
2023-01-03T21:06:17.853Z,0
2023-01-03T21:12:40.813Z,0
2023-01-03T21:19:00.793Z,0
2023-01-03T21:25:23.841Z,0
2023-01-03T21:31:43.948Z,0
2023-01-03T21:38:06.863Z,0
2023-01-03T21:44:26.830Z,0
2023-01-03T21:50:49.887Z,0
2023-01-03T21:57:09.786Z,0
2023-01-03T22:03:32.882Z,0
2023-01-03T22:09:52.788Z,0
2023-01-03T22:16:15.980Z,0
2023-01-03T22:22:35.767Z,0
2023-01-03T22:28:58.812Z,0
2023-01-03T22:35:18.894Z,0
2023-01-03T22:41:41.826Z,0
2023-01-03T22:48:01.763Z,0
2023-01-03T22:54:24.857Z,0
2023-01-03T23:19:56.792Z,0
2023-01-03T23:26:16.790Z,0
2023-01-03T23:32:39.751Z,0
2023-01-03T23:38:59.872Z,0
2023-01-03T23:45:22.784Z,0
2023-01-03T23:51:42.775Z,0
2023-01-03T23:58:05.803Z,0
